Time;durP1;ratioP1;P1;durP2;ratioP2;P2;SDS_P1;SDS_P2;PMS_P1;PMS_P2;Temp;Humidity;BMP_temperature;BMP_pressure;BME280_temperature;BME280_humidity;BME280_pressure;Samples;Min_cycle;Max_cycle;Signal;HPM_P1;HPM_P2
2021/01/23 00:01:29;;;;;;;36.03;33.13;;;;;;;;;;4994188;28;20209;-80
2021/01/23 00:03:57;;;;;;;35.45;32.50;;;;;;;;;;4994363;28;20552;-80
2021/01/23 00:06:24;;;;;;;37.58;34.47;;;;;;;;;;4994053;28;20213;-79
2021/01/23 00:08:51;;;;;;;38.95;35.60;;;;;;;;;;4994449;28;20190;-79
2021/01/23 00:11:18;;;;;;;35.90;33.17;;;;;;;;;;4994136;28;20201;-80
2021/01/23 00:13:45;;;;;;;37.83;34.60;;;;;;;;;;4994197;28;20221;-80
2021/01/23 00:16:11;;;;;;;37.60;34.30;;;;;;;;;;5001205;28;20234;-80
2021/01/23 00:18:38;;;;;;;36.10;33.30;;;;;;;;;;5013939;28;20200;-80
2021/01/23 00:21:06;;;;;;;36.30;33.50;;;;;;;;;;5013628;28;20193;-80
2021/01/23 00:23:33;;;;;;;35.50;32.45;;;;;;;;;;5013917;28;20197;-80
2021/01/23 00:26:00;;;;;;;36.92;33.83;;;;;;;;;;5013520;28;20196;-80
2021/01/23 00:28:27;;;;;;;36.67;33.63;;;;;;;;;;5013598;28;20639;-79
2021/01/23 00:30:53;;;;;;;37.53;34.42;;;;;;;;;;5013634;28;20205;-80
2021/01/23 00:33:20;;;;;;;37.13;33.97;;;;;;;;;;5013692;28;20213;-79
2021/01/23 00:35:47;;;;;;;35.88;32.63;;;;;;;;;;5013499;28;20190;-79
2021/01/23 00:38:15;;;;;;;35.13;32.50;;;;;;;;;;5013765;28;20189;-80
2021/01/23 00:40:42;;;;;;;36.10;33.28;;;;;;;;;;5013504;28;20643;-80
2021/01/23 00:43:09;;;;;;;37.25;34.20;;;;;;;;;;5013571;28;20308;-80
2021/01/23 00:45:35;;;;;;;37.20;34.10;;;;;;;;;;5013445;28;20204;-80
2021/01/23 00:48:07;;;;;;;36.42;32.97;;;;;;;;;;5013678;28;20197;-80
2021/01/23 00:50:34;;;;;;;37.63;34.60;;;;;;;;;;5013369;28;20198;-79
2021/01/23 00:53:01;;;;;;;35.40;32.55;;;;;;;;;;5013228;28;20679;-80
2021/01/23 00:55:29;;;;;;;36.80;33.80;;;;;;;;;;5013661;28;20201;-80
2021/01/23 00:57:56;;;;;;;35.38;32.67;;;;;;;;;;5015433;28;20194;-78
2021/01/23 01:00:23;;;;;;;36.50;33.50;;;;;;;;;;5017392;28;20201;-80
2021/01/23 01:02:50;;;;;;;38.05;34.65;;;;;;;;;;5017077;28;20190;-80
2021/01/23 01:05:17;;;;;;;37.97;34.60;;;;;;;;;;5017008;28;20524;-81
2021/01/23 01:07:44;;;;;;;36.35;33.42;;;;;;;;;;5016830;28;20190;-80
2021/01/23 01:10:11;;;;;;;35.85;33.10;;;;;;;;;;5017225;28;20186;-80
2021/01/23 01:12:39;;;;;;;37.88;34.75;;;;;;;;;;5017018;28;20193;-80
2021/01/23 01:15:07;;;;;;;39.03;35.28;;;;;;;;;;5016936;28;20194;-80
2021/01/23 01:17:34;;;;;;;38.42;35.22;;;;;;;;;;5016568;28;20237;-80
2021/01/23 01:20:01;;;;;;;40.15;36.53;;;;;;;;;;5017003;28;20201;-80
2021/01/23 01:22:28;;;;;;;39.42;35.80;;;;;;;;;;4999374;28;20670;-80
2021/01/23 01:24:55;;;;;;;39.83;36.45;;;;;;;;;;5016580;28;20198;-79
2021/01/23 01:27:22;;;;;;;40.05;36.47;;;;;;;;;;5016856;28;20217;-80
2021/01/23 01:29:50;;;;;;;40.25;36.63;;;;;;;;;;5016452;28;20194;-80
2021/01/23 01:32:17;;;;;;;41.08;37.40;;;;;;;;;;5016260;28;20206;-80
2021/01/23 01:34:44;;;;;;;42.78;38.78;;;;;;;;;;4999033;28;20706;-80
2021/01/23 01:37:11;;;;;;;45.08;39.63;;;;;;;;;;5016343;28;20194;-80
2021/01/23 01:39:38;;;;;;;43.10;38.53;;;;;;;;;;5016693;28;20193;-80
2021/01/23 01:42:05;;;;;;;40.38;36.50;;;;;;;;;;5016276;28;20217;-80
2021/01/23 01:44:32;;;;;;;41.67;37.78;;;;;;;;;;5016278;28;20661;-80
2021/01/23 01:47:00;;;;;;;42.40;38.58;;;;;;;;;;5016233;28;20200;-80
2021/01/23 01:49:28;;;;;;;40.72;36.67;;;;;;;;;;5016179;28;20671;-80
2021/01/23 01:51:55;;;;;;;44.13;39.58;;;;;;;;;;4998548;28;20202;-80
2021/01/23 01:54:23;;;;;;;41.55;37.85;;;;;;;;;;5016037;28;20213;-79
2021/01/23 01:56:49;;;;;;;39.83;36.20;;;;;;;;;;5016043;28;20195;-80
2021/01/23 01:59:16;;;;;;;39.00;35.38;;;;;;;;;;5015924;28;20194;-80
2021/01/23 02:01:43;;;;;;;39.22;35.67;;;;;;;;;;5016245;28;20211;-80
2021/01/23 02:04:20;;;;;;;38.58;35.17;;;;;;;;;;4998528;28;20725;-80
2021/01/23 02:06:54;;;;;;;38.30;35.10;;;;;;;;;;4998259;28;20566;-80
2021/01/23 02:09:29;;;;;;;39.90;35.70;;;;;;;;;;5015975;28;20193;-79
2021/01/23 02:12:00;;;;;;;37.58;34.35;;;;;;;;;;5015689;28;20549;-79
2021/01/23 02:14:30;;;;;;;37.95;34.55;;;;;;;;;;5015802;28;20225;-80
2021/01/23 02:17:00;;;;;;;38.30;35.17;;;;;;;;;;5015423;28;20237;-80
2021/01/23 02:19:33;;;;;;;37.90;34.55;;;;;;;;;;5015528;28;20202;-80
2021/01/23 02:22:09;;;;;;;37.45;34.42;;;;;;;;;;5015518;28;20229;-80
2021/01/23 02:24:36;;;;;;;35.92;32.53;;;;;;;;;;4998070;28;20202;-80
2021/01/23 02:27:19;;;;;;;40.35;36.83;;;;;;;;;;5015681;28;20186;-80
2021/01/23 02:29:55;;;;;;;36.85;33.75;;;;;;;;;;5015679;28;20701;-79
2021/01/23 02:32:24;;;;;;;38.15;34.55;;;;;;;;;;5015320;28;20190;-80
2021/01/23 02:34:51;;;;;;;37.72;34.53;;;;;;;;;;5015279;28;20217;-80
2021/01/23 02:37:19;;;;;;;40.92;37.35;;;;;;;;;;5015446;28;20197;-79
2021/01/23 02:39:46;;;;;;;38.17;34.80;;;;;;;;;;5015217;28;20240;-80
2021/01/23 02:42:13;;;;;;;37.88;34.67;;;;;;;;;;5015054;28;20294;-80
2021/01/23 02:44:40;;;;;;;37.25;33.80;;;;;;;;;;5014955;28;20190;-80
2021/01/23 02:47:07;;;;;;;40.10;36.42;;;;;;;;;;5015304;28;20218;-79
2021/01/23 02:49:34;;;;;;;38.33;34.78;;;;;;;;;;5015370;28;20367;-80
2021/01/23 02:52:03;;;;;;;38.85;35.42;;;;;;;;;;5015011;28;20194;-80
2021/01/23 02:54:33;;;;;;;39.38;35.88;;;;;;;;;;4997568;28;20242;-80
2021/01/23 02:57:02;;;;;;;39.63;35.97;;;;;;;;;;5015130;28;20191;-80
2021/01/23 02:59:30;;;;;;;37.50;34.25;;;;;;;;;;5014814;28;20205;-80
2021/01/23 03:01:58;;;;;;;41.38;37.22;;;;;;;;;;5015134;28;20259;-80
2021/01/23 03:04:25;;;;;;;40.00;36.60;;;;;;;;;;5015118;28;20190;-80
2021/01/23 03:06:53;;;;;;;40.22;36.72;;;;;;;;;;5014734;28;20197;-80
2021/01/23 03:09:20;;;;;;;39.08;35.47;;;;;;;;;;5014676;28;20190;-80
2021/01/23 03:11:47;;;;;;;40.53;36.63;;;;;;;;;;5014634;28;20243;-80
2021/01/23 03:14:14;;;;;;;39.10;35.47;;;;;;;;;;5014673;28;20580;-80
2021/01/23 03:16:46;;;;;;;37.83;34.53;;;;;;;;;;5014311;28;20233;-80
2021/01/23 03:19:13;;;;;;;41.40;37.70;;;;;;;;;;5014834;28;20279;-80
2021/01/23 03:21:40;;;;;;;39.22;35.67;;;;;;;;;;5014347;28;20201;-79
2021/01/23 03:24:09;;;;;;;40.22;36.42;;;;;;;;;;5014389;28;20189;-80
2021/01/23 03:26:36;;;;;;;38.65;34.97;;;;;;;;;;5014544;28;20260;-80
2021/01/23 03:29:03;;;;;;;38.67;35.35;;;;;;;;;;5014529;28;20613;-79
2021/01/23 03:31:30;;;;;;;38.63;35.25;;;;;;;;;;5014351;28;20186;-80
2021/01/23 03:33:57;;;;;;;39.85;35.97;;;;;;;;;;5014430;28;20225;-80
2021/01/23 03:36:24;;;;;;;39.58;35.47;;;;;;;;;;5014494;28;20189;-80
2021/01/23 03:38:50;;;;;;;39.15;35.70;;;;;;;;;;5014551;28;20201;-80
2021/01/23 03:41:18;;;;;;;38.25;34.72;;;;;;;;;;5014148;28;20185;-80
2021/01/23 03:43:45;;;;;;;40.75;37.13;;;;;;;;;;5014300;28;20189;-80
2021/01/23 03:46:12;;;;;;;39.72;36.22;;;;;;;;;;5014248;28;20194;-80
2021/01/23 03:48:39;;;;;;;37.10;34.00;;;;;;;;;;5014146;28;20644;-80
2021/01/23 03:51:06;;;;;;;39.80;36.03;;;;;;;;;;5013926;28;20289;-80
2021/01/23 03:53:33;;;;;;;38.83;35.33;;;;;;;;;;5013964;28;20261;-80
2021/01/23 03:56:00;;;;;;;38.20;34.75;;;;;;;;;;5013854;28;20190;-79
2021/01/23 03:58:28;;;;;;;39.10;35.65;;;;;;;;;;5014982;28;20200;-80
2021/01/23 04:00:55;;;;;;;39.13;35.53;;;;;;;;;;4996658;28;20202;-80
2021/01/23 04:03:22;;;;;;;38.92;35.38;;;;;;;;;;5013456;28;20583;-80
2021/01/23 04:05:49;;;;;;;38.75;35.38;;;;;;;;;;5013511;28;20255;-80
2021/01/23 04:08:16;;;;;;;37.72;33.95;;;;;;;;;;5014873;28;20194;-80
2021/01/23 04:10:42;;;;;;;39.13;35.45;;;;;;;;;;5013787;28;20198;-80
2021/01/23 04:13:10;;;;;;;36.10;32.88;;;;;;;;;;5013828;28;20186;-80
2021/01/23 04:15:38;;;;;;;41.95;37.75;;;;;;;;;;4996129;28;20284;-80
2021/01/23 04:18:05;;;;;;;37.03;33.90;;;;;;;;;;5013972;28;20189;-80
2021/01/23 04:20:32;;;;;;;38.08;34.40;;;;;;;;;;5013612;28;20652;-80
2021/01/23 04:22:59;;;;;;;40.60;36.92;;;;;;;;;;4996323;28;20264;-80
2021/01/23 04:25:26;;;;;;;37.05;33.58;;;;;;;;;;5013891;28;20252;-79
2021/01/23 04:27:54;;;;;;;39.03;35.30;;;;;;;;;;5013656;28;20196;-80
2021/01/23 04:30:22;;;;;;;38.70;35.00;;;;;;;;;;5013900;28;20194;-80
2021/01/23 04:32:50;;;;;;;38.47;34.72;;;;;;;;;;5015719;28;20278;-80
2021/01/23 04:35:17;;;;;;;37.55;34.33;;;;;;;;;;5017364;28;20221;-80
2021/01/23 04:37:44;;;;;;;37.97;34.38;;;;;;;;;;5017793;28;20628;-80
2021/01/23 04:40:12;;;;;;;37.55;34.25;;;;;;;;;;5017527;28;20186;-80
2021/01/23 04:42:41;;;;;;;39.08;35.15;;;;;;;;;;5017386;28;20221;-80
2021/01/23 04:45:09;;;;;;;38.92;35.42;;;;;;;;;;5017269;28;20224;-80
2021/01/23 04:47:36;;;;;;;39.38;35.67;;;;;;;;;;5017093;28;20594;-80
2021/01/23 04:50:05;;;;;;;37.35;33.97;;;;;;;;;;5017261;28;20186;-79
2021/01/23 04:52:35;;;;;;;41.65;37.35;;;;;;;;;;5017255;28;20659;-79
2021/01/23 04:55:02;;;;;;;37.95;34.60;;;;;;;;;;5017142;28;20218;-80
2021/01/23 04:57:28;;;;;;;38.38;34.88;;;;;;;;;;5017229;28;20567;-80
2021/01/23 04:59:55;;;;;;;37.42;34.00;;;;;;;;;;4999540;28;20669;-80
2021/01/23 05:02:23;;;;;;;35.92;32.45;;;;;;;;;;5017361;28;20189;-80
2021/01/23 05:04:54;;;;;;;38.05;34.67;;;;;;;;;;5017281;28;20189;-80
2021/01/23 05:07:29;;;;;;;39.55;35.83;;;;;;;;;;5016841;28;20201;-80
2021/01/23 05:09:56;;;;;;;37.97;34.45;;;;;;;;;;5016923;28;20197;-80
2021/01/23 05:12:36;;;;;;;38.83;35.03;;;;;;;;;;5017136;28;20186;-80
2021/01/23 05:15:04;;;;;;;37.72;34.33;;;;;;;;;;5016681;28;20233;-80
2021/01/23 05:17:31;;;;;;;38.40;34.80;;;;;;;;;;5016601;28;20234;-80
2021/01/23 05:19:57;;;;;;;36.95;33.55;;;;;;;;;;5016786;28;20197;-80
2021/01/23 05:22:24;;;;;;;37.72;34.22;;;;;;;;;;5016949;28;20639;-80
2021/01/23 05:24:53;;;;;;;38.42;35.00;;;;;;;;;;5016682;28;20196;-80
2021/01/23 05:27:20;;;;;;;39.45;35.72;;;;;;;;;;5016828;28;20531;-80
2021/01/23 05:29:57;;;;;;;38.42;35.05;;;;;;;;;;5016704;28;20190;-80
2021/01/23 05:32:24;;;;;;;38.63;34.95;;;;;;;;;;5016571;28;20200;-80
2021/01/23 05:34:51;;;;;;;38.03;34.58;;;;;;;;;;5016604;28;20217;-79
2021/01/23 05:37:34;;;;;;;40.58;36.78;;;;;;;;;;5016274;28;20561;-79
2021/01/23 05:40:02;;;;;;;37.38;34.10;;;;;;;;;;5016434;28;20190;-79
2021/01/23 05:42:30;;;;;;;38.30;34.90;;;;;;;;;;5016117;28;20773;-79
2021/01/23 05:45:11;;;;;;;40.85;36.67;;;;;;;;;;5016205;28;20200;-80
2021/01/23 05:47:39;;;;;;;39.40;35.45;;;;;;;;;;5014492;28;20212;-79
2021/01/23 05:50:07;;;;;;;36.78;33.47;;;;;;;;;;5016463;28;20268;-79
2021/01/23 05:52:34;;;;;;;41.03;37.13;;;;;;;;;;4998694;28;20202;-79
2021/01/23 05:55:01;;;;;;;37.80;34.20;;;;;;;;;;5015815;28;20225;-80
2021/01/23 05:57:29;;;;;;;39.60;35.60;;;;;;;;;;5016292;28;20190;-79
2021/01/23 05:59:56;;;;;;;37.80;34.58;;;;;;;;;;4998601;28;20194;-80
2021/01/23 06:02:24;;;;;;;37.67;33.92;;;;;;;;;;5016230;28;20190;-80
2021/01/23 06:04:51;;;;;;;39.38;35.47;;;;;;;;;;5016162;28;20194;-79
2021/01/23 06:07:37;;;;;;;37.35;33.95;;;;;;;;;;5015788;28;20201;-79
2021/01/23 06:10:04;;;;;;;39.85;36.03;;;;;;;;;;5015473;28;20201;-80
2021/01/23 06:12:39;;;;;;;37.25;34.05;;;;;;;;;;4998763;28;20240;-80
2021/01/23 06:15:21;;;;;;;43.10;38.80;;;;;;;;;;5015496;28;20227;-79
2021/01/23 06:17:49;;;;;;;43.22;38.78;;;;;;;;;;4998418;28;20228;-79
2021/01/23 06:20:31;;;;;;;41.83;37.65;;;;;;;;;;5015962;28;20276;-79
2021/01/23 06:22:59;;;;;;;40.88;36.45;;;;;;;;;;5014833;28;20288;-79
2021/01/23 06:25:46;;;;;;;38.72;35.10;;;;;;;;;;4998276;28;20636;-80
2021/01/23 06:28:13;;;;;;;40.22;36.35;;;;;;;;;;5015239;28;20624;-79
2021/01/23 06:30:40;;;;;;;39.25;35.38;;;;;;;;;;5015693;28;20192;-80
2021/01/23 06:33:26;;;;;;;38.17;34.22;;;;;;;;;;5015329;28;20243;-80
2021/01/23 06:36:07;;;;;;;36.13;32.90;;;;;;;;;;5015297;28;20193;-79
2021/01/23 06:38:35;;;;;;;38.95;35.33;;;;;;;;;;5014622;28;20224;-80
2021/01/23 06:41:16;;;;;;;40.00;36.20;;;;;;;;;;5015191;28;20256;-80
2021/01/23 06:46:36;;;;;;;39.08;35.10;;;;;;;;;;5115994;27;1087032;-80
2021/01/23 06:49:04;;;;;;;49.95;42.03;;;;;;;;;;5131948;28;20202;-80
2021/01/23 06:51:31;;;;;;;42.90;38.38;;;;;;;;;;5132131;28;20189;-79
2021/01/23 06:54:10;;;;;;;42.42;38.03;;;;;;;;;;5132004;28;20185;-79
2021/01/23 06:56:37;;;;;;;40.88;36.88;;;;;;;;;;5131695;28;20539;-79
2021/01/23 06:59:04;;;;;;;38.38;34.80;;;;;;;;;;5131639;28;20208;-79
2021/01/23 07:01:31;;;;;;;39.13;35.13;;;;;;;;;;5131773;28;20190;-79
2021/01/23 07:03:59;;;;;;;45.15;40.53;;;;;;;;;;5131682;28;20193;-80
2021/01/23 07:06:32;;;;;;;38.38;34.45;;;;;;;;;;5131761;28;20213;-79
2021/01/23 07:08:58;;;;;;;37.67;34.20;;;;;;;;;;5131368;28;20212;-80
2021/01/23 07:11:26;;;;;;;37.50;33.58;;;;;;;;;;5131761;28;20202;-80
2021/01/23 07:14:01;;;;;;;41.80;34.88;;;;;;;;;;5113629;28;20566;-79
2021/01/23 07:16:29;;;;;;;40.10;34.22;;;;;;;;;;5131691;28;20601;-79
2021/01/23 07:18:56;;;;;;;37.13;33.30;;;;;;;;;;5131369;28;20186;-80
2021/01/23 07:21:25;;;;;;;38.85;35.15;;;;;;;;;;5131302;28;20228;-80
2021/01/23 07:23:54;;;;;;;40.17;36.03;;;;;;;;;;5131185;28;20239;-79
2021/01/23 07:26:23;;;;;;;42.45;37.92;;;;;;;;;;5131046;28;20585;-77
2021/01/23 07:28:55;;;;;;;43.17;37.78;;;;;;;;;;5131435;28;20193;-79
2021/01/23 07:31:26;;;;;;;38.78;34.95;;;;;;;;;;5130877;28;20298;-79
2021/01/23 07:34:02;;;;;;;35.15;31.65;;;;;;;;;;5130925;28;20704;-76
2021/01/23 07:36:48;;;;;;;39.80;34.75;;;;;;;;;;5130810;28;20248;-75
2021/01/23 07:39:21;;;;;;;36.40;32.97;;;;;;;;;;5130637;28;20194;-75
2021/01/23 07:41:55;;;;;;;38.08;34.40;;;;;;;;;;5130604;28;20694;-75
2021/01/23 07:44:29;;;;;;;41.92;36.85;;;;;;;;;;5130274;28;20186;-76
2021/01/23 07:47:01;;;;;;;51.85;40.78;;;;;;;;;;5089066;28;20187;-76
2021/01/23 07:49:29;;;;;;;46.63;38.92;;;;;;;;;;5090054;28;20187;-76
2021/01/23 07:52:07;;;;;;;53.67;42.53;;;;;;;;;;5090164;28;20629;-76
2021/01/23 07:54:34;;;;;;;88.18;58.17;;;;;;;;;;5090072;28;20194;-77
2021/01/23 07:57:00;;;;;;;75.38;52.47;;;;;;;;;;5081816;28;20192;-77
2021/01/23 07:59:42;;;;;;;39.05;35.00;;;;;;;;;;5076849;28;20194;-77
2021/01/23 08:02:10;;;;;;;40.00;35.50;;;;;;;;;;5076114;28;20188;-77
2021/01/23 08:04:37;;;;;;;36.45;32.63;;;;;;;;;;5076303;28;20253;-77
2021/01/23 08:07:24;;;;;;;85.40;56.03;;;;;;;;;;5076348;28;20195;-76
2021/01/23 08:10:19;;;;;;;43.08;37.33;;;;;;;;;;5075982;28;20569;-76
2021/01/23 08:12:56;;;;;;;40.92;36.72;;;;;;;;;;5075996;28;20192;-76
2021/01/23 08:15:24;;;;;;;36.08;32.78;;;;;;;;;;5076214;28;20183;-77
2021/01/23 08:17:51;;;;;;;40.80;36.60;;;;;;;;;;5076099;28;20292;-77
2021/01/23 08:20:18;;;;;;;42.08;37.55;;;;;;;;;;5074542;28;20557;-76
2021/01/23 08:22:59;;;;;;;37.63;33.63;;;;;;;;;;5075772;28;20270;-76
2021/01/23 08:25:27;;;;;;;42.22;36.08;;;;;;;;;;5075982;28;20215;-76
2021/01/23 08:27:55;;;;;;;41.15;36.67;;;;;;;;;;5075989;28;20199;-76
2021/01/23 08:30:22;;;;;;;38.08;34.03;;;;;;;;;;5075740;28;20224;-76
2021/01/23 08:32:49;;;;;;;36.25;32.65;;;;;;;;;;5075517;28;20192;-76
2021/01/23 08:35:16;;;;;;;67.70;52.00;;;;;;;;;;5075777;28;20250;-77
2021/01/23 08:37:43;;;;;;;40.33;36.17;;;;;;;;;;5075572;28;20187;-81
2021/01/23 08:40:12;;;;;;;41.85;37.17;;;;;;;;;;5075729;28;20543;-78
2021/01/23 08:42:38;;;;;;;41.55;37.50;;;;;;;;;;5075408;28;20249;-81
2021/01/23 08:45:06;;;;;;;41.17;37.05;;;;;;;;;;5080448;28;20235;-79
2021/01/23 08:47:33;;;;;;;39.55;35.47;;;;;;;;;;5095579;28;20236;-78
2021/01/23 08:50:00;;;;;;;43.47;39.15;;;;;;;;;;5094453;28;20245;-78
2021/01/23 08:52:26;;;;;;;45.67;38.00;;;;;;;;;;5095459;28;20188;-78
2021/01/23 08:54:53;;;;;;;39.10;35.15;;;;;;;;;;5095676;28;20195;-78
2021/01/23 08:57:21;;;;;;;42.60;38.15;;;;;;;;;;5095397;28;20198;-78
2021/01/23 08:59:48;;;;;;;39.08;35.33;;;;;;;;;;5095577;28;20549;-78
2021/01/23 09:02:15;;;;;;;40.50;36.15;;;;;;;;;;5095259;28;20187;-78
2021/01/23 09:04:42;;;;;;;39.05;35.38;;;;;;;;;;5095458;28;20592;-78
2021/01/23 09:07:09;;;;;;;37.63;34.22;;;;;;;;;;5095428;28;20201;-78
2021/01/23 09:09:36;;;;;;;34.95;31.58;;;;;;;;;;5094418;28;20183;-78
2021/01/23 09:12:03;;;;;;;34.30;31.17;;;;;;;;;;5095383;28;20191;-78
2021/01/23 09:14:31;;;;;;;44.42;40.85;;;;;;;;;;5095166;28;20286;-78
2021/01/23 09:16:57;;;;;;;36.50;32.97;;;;;;;;;;5094936;28;20192;-78
2021/01/23 09:19:24;;;;;;;37.97;34.22;;;;;;;;;;5095239;28;20190;-78
2021/01/23 09:21:51;;;;;;;139.18;84.90;;;;;;;;;;5095689;28;20198;-79
2021/01/23 09:24:18;;;;;;;100.10;72.82;;;;;;;;;;5094986;28;20260;-78
2021/01/23 09:26:45;;;;;;;43.38;38.92;;;;;;;;;;5094877;28;20214;-78
2021/01/23 09:29:12;;;;;;;31.88;29.27;;;;;;;;;;5095007;28;20192;-81
2021/01/23 09:31:40;;;;;;;31.65;29.08;;;;;;;;;;5094982;28;20188;-78
2021/01/23 09:34:07;;;;;;;35.85;32.55;;;;;;;;;;5094949;28;20195;-78
2021/01/23 09:36:34;;;;;;;32.72;29.98;;;;;;;;;;5094879;28;20198;-78
2021/01/23 09:39:01;;;;;;;33.03;30.20;;;;;;;;;;5094466;28;20187;-78
2021/01/23 09:41:28;;;;;;;32.90;29.88;;;;;;;;;;5094359;28;20229;-77
2021/01/23 09:43:55;;;;;;;33.15;30.25;;;;;;;;;;5094683;28;20192;-78
2021/01/23 09:46:22;;;;;;;33.58;30.30;;;;;;;;;;5094074;28;20588;-78
2021/01/23 09:48:50;;;;;;;32.85;29.85;;;;;;;;;;5094656;28;20192;-77
2021/01/23 09:51:17;;;;;;;33.80;30.90;;;;;;;;;;5094334;28;20187;-78
2021/01/23 09:53:44;;;;;;;40.97;37.38;;;;;;;;;;5094661;28;20188;-78
2021/01/23 09:56:11;;;;;;;64.70;57.35;;;;;;;;;;5094465;28;20187;-81
2021/01/23 09:58:38;;;;;;;38.53;35.25;;;;;;;;;;5095480;28;20235;-79
2021/01/23 10:01:05;;;;;;;41.05;37.33;;;;;;;;;;5095199;28;20183;-79
2021/01/23 10:03:31;;;;;;;40.40;37.10;;;;;;;;;;5094809;28;20191;-79
2021/01/23 10:05:59;;;;;;;34.47;31.70;;;;;;;;;;5106296;28;20215;-79
2021/01/23 10:08:26;;;;;;;32.67;30.08;;;;;;;;;;5114862;28;20182;-80
2021/01/23 10:10:53;;;;;;;33.28;30.38;;;;;;;;;;5114866;28;20520;-80
2021/01/23 10:13:20;;;;;;;29.73;27.42;;;;;;;;;;5114222;28;20651;-79
2021/01/23 10:15:47;;;;;;;30.52;28.23;;;;;;;;;;5114568;28;20190;-79
2021/01/23 10:18:14;;;;;;;29.95;27.55;;;;;;;;;;5114594;28;20233;-79
2021/01/23 10:20:41;;;;;;;29.33;26.83;;;;;;;;;;5114038;28;20187;-78
2021/01/23 10:23:09;;;;;;;29.50;27.15;;;;;;;;;;5114496;28;20285;-79
2021/01/23 10:25:36;;;;;;;29.30;27.00;;;;;;;;;;5113941;28;20218;-79
2021/01/23 10:28:03;;;;;;;29.20;26.98;;;;;;;;;;5114551;28;20527;-79
2021/01/23 10:30:30;;;;;;;29.13;26.73;;;;;;;;;;5114180;28;20187;-79
2021/01/23 10:32:57;;;;;;;29.45;26.88;;;;;;;;;;5114055;28;20248;-78
2021/01/23 10:35:24;;;;;;;28.40;26.40;;;;;;;;;;5113961;28;20183;-78
2021/01/23 10:37:51;;;;;;;30.38;28.15;;;;;;;;;;5114040;28;20198;-79
2021/01/23 10:40:19;;;;;;;28.10;26.05;;;;;;;;;;5114209;28;20624;-78
2021/01/23 10:42:46;;;;;;;30.10;27.80;;;;;;;;;;5114006;28;20276;-78
2021/01/23 10:45:13;;;;;;;29.35;26.95;;;;;;;;;;5113448;28;20231;-79
2021/01/23 10:47:40;;;;;;;30.13;27.73;;;;;;;;;;5114214;28;20190;-79
2021/01/23 10:50:08;;;;;;;27.67;25.58;;;;;;;;;;5114307;28;20193;-79
2021/01/23 10:52:35;;;;;;;27.13;25.20;;;;;;;;;;5113942;28;20229;-79
2021/01/23 10:55:02;;;;;;;27.10;25.20;;;;;;;;;;5114158;28;20187;-79
2021/01/23 10:57:29;;;;;;;26.98;24.55;;;;;;;;;;5113860;28;20192;-79
2021/01/23 10:59:56;;;;;;;29.65;27.33;;;;;;;;;;5113772;28;20194;-78
2021/01/23 11:02:23;;;;;;;28.38;26.33;;;;;;;;;;5114124;28;20195;-79
2021/01/23 11:04:50;;;;;;;28.60;26.50;;;;;;;;;;5113937;28;20187;-79
2021/01/23 11:07:17;;;;;;;26.85;24.98;;;;;;;;;;5114262;28;20651;-79
2021/01/23 11:09:44;;;;;;;26.85;24.95;;;;;;;;;;5114627;28;20183;-78
2021/01/23 11:12:11;;;;;;;27.83;25.83;;;;;;;;;;5113994;28;20233;-79
2021/01/23 11:14:39;;;;;;;26.00;24.33;;;;;;;;;;5113299;28;20198;-79
2021/01/23 11:17:06;;;;;;;27.52;25.67;;;;;;;;;;5113687;28;20194;-79
2021/01/23 11:19:33;;;;;;;26.92;24.95;;;;;;;;;;5113635;28;20198;-79
2021/01/23 11:22:00;;;;;;;26.48;24.77;;;;;;;;;;5113486;28;20200;-79
2021/01/23 11:24:29;;;;;;;27.45;25.55;;;;;;;;;;5113819;28;20220;-79
2021/01/23 11:26:55;;;;;;;26.33;24.52;;;;;;;;;;5113330;28;20754;-79
2021/01/23 11:29:22;;;;;;;39.80;36.35;;;;;;;;;;5113460;28;20648;-79
2021/01/23 11:31:50;;;;;;;29.20;27.15;;;;;;;;;;5114767;28;20195;-79
2021/01/23 11:34:17;;;;;;;31.35;29.05;;;;;;;;;;5117326;28;20194;-79
2021/01/23 11:36:44;;;;;;;29.23;27.13;;;;;;;;;;5117366;28;20179;-79
2021/01/23 11:39:11;;;;;;;28.63;26.63;;;;;;;;;;5117279;28;20238;-78
2021/01/23 11:41:39;;;;;;;28.23;26.42;;;;;;;;;;5117194;28;20225;-80
2021/01/23 11:44:07;;;;;;;28.33;26.33;;;;;;;;;;5117128;28;20522;-80
2021/01/23 11:46:33;;;;;;;27.42;25.42;;;;;;;;;;5116971;28;20242;-79
2021/01/23 11:49:02;;;;;;;28.17;26.27;;;;;;;;;;5117945;28;20183;-80
2021/01/23 11:51:28;;;;;;;27.00;25.30;;;;;;;;;;5116948;28;20194;-79
2021/01/23 11:53:57;;;;;;;25.23;23.63;;;;;;;;;;5117238;28;20184;-79
2021/01/23 11:56:24;;;;;;;26.30;24.33;;;;;;;;;;5116792;28;20194;-81
2021/01/23 11:58:51;;;;;;;26.40;24.70;;;;;;;;;;5116907;28;20633;-79
2021/01/23 12:01:18;;;;;;;26.80;24.90;;;;;;;;;;5117157;28;20192;-79
2021/01/23 12:03:45;;;;;;;26.75;24.95;;;;;;;;;;5116762;28;20637;-80
2021/01/23 12:06:13;;;;;;;26.90;25.13;;;;;;;;;;5116602;28;20267;-79
2021/01/23 12:08:40;;;;;;;26.00;24.35;;;;;;;;;;5116978;28;20199;-80
2021/01/23 12:11:07;;;;;;;26.98;25.27;;;;;;;;;;5117001;28;20184;-79
2021/01/23 12:13:34;;;;;;;26.98;25.20;;;;;;;;;;5116543;28;20195;-79
2021/01/23 12:16:01;;;;;;;25.00;23.40;;;;;;;;;;5116700;28;20206;-79
2021/01/23 12:18:28;;;;;;;25.83;24.13;;;;;;;;;;5116869;28;20199;-79
2021/01/23 12:20:54;;;;;;;24.85;23.25;;;;;;;;;;5116886;28;20196;-78
2021/01/23 12:23:22;;;;;;;27.00;24.85;;;;;;;;;;5116388;28;20656;-79
2021/01/23 12:25:49;;;;;;;25.77;23.92;;;;;;;;;;5116528;28;20223;-78
2021/01/23 12:28:16;;;;;;;26.38;24.50;;;;;;;;;;5116360;28;20192;-84
2021/01/23 12:30:43;;;;;;;26.35;24.55;;;;;;;;;;5114947;28;20198;-83
2021/01/23 12:33:10;;;;;;;27.52;25.73;;;;;;;;;;5116247;28;20221;-78
2021/01/23 12:35:36;;;;;;;26.30;24.60;;;;;;;;;;5116484;28;20237;-77
2021/01/23 12:38:03;;;;;;;24.73;23.23;;;;;;;;;;5116361;28;20590;-78
2021/01/23 12:40:31;;;;;;;24.80;23.15;;;;;;;;;;5116313;28;20185;-78
2021/01/23 12:42:58;;;;;;;26.90;25.20;;;;;;;;;;5115875;28;20590;-78
2021/01/23 12:45:25;;;;;;;25.90;24.10;;;;;;;;;;5115878;28;20230;-78
2021/01/23 12:47:52;;;;;;;25.08;23.30;;;;;;;;;;5116009;28;20690;-78
2021/01/23 12:50:19;;;;;;;26.13;24.10;;;;;;;;;;5116234;28;20210;-79
2021/01/23 12:52:46;;;;;;;25.83;23.92;;;;;;;;;;5115841;28;20191;-78
2021/01/23 12:55:14;;;;;;;26.13;24.52;;;;;;;;;;5116029;28;20200;-78
2021/01/23 12:57:43;;;;;;;25.77;24.13;;;;;;;;;;5116068;28;20192;-76
2021/01/23 13:00:11;;;;;;;27.27;25.35;;;;;;;;;;5115706;28;20188;-77
2021/01/23 13:02:38;;;;;;;26.40;24.60;;;;;;;;;;5115987;28;20222;-78
2021/01/23 13:05:06;;;;;;;27.27;25.38;;;;;;;;;;5115872;28;20613;-78
2021/01/23 13:07:32;;;;;;;27.30;25.40;;;;;;;;;;5115644;28;20636;-77
2021/01/23 13:09:59;;;;;;;25.58;23.70;;;;;;;;;;5115527;28;20193;-78
2021/01/23 13:12:26;;;;;;;24.30;22.70;;;;;;;;;;5116236;28;20223;-78
2021/01/23 13:14:54;;;;;;;27.25;25.55;;;;;;;;;;5115479;28;20188;-78
2021/01/23 13:17:21;;;;;;;27.42;25.63;;;;;;;;;;5115649;28;20539;-78
2021/01/23 13:19:47;;;;;;;26.45;24.52;;;;;;;;;;5115324;28;20198;-77
2021/01/23 13:22:14;;;;;;;27.73;25.73;;;;;;;;;;5115515;28;20190;-78
2021/01/23 13:24:42;;;;;;;27.10;25.17;;;;;;;;;;5115478;28;20199;-77
2021/01/23 13:27:08;;;;;;;26.95;25.15;;;;;;;;;;5114945;28;20587;-77
2021/01/23 13:29:35;;;;;;;27.98;25.92;;;;;;;;;;5115460;28;20189;-77
2021/01/23 13:32:03;;;;;;;33.17;30.70;;;;;;;;;;5115372;28;20187;-77
2021/01/23 13:34:30;;;;;;;29.85;27.95;;;;;;;;;;5114875;28;20645;-77
2021/01/23 13:36:57;;;;;;;29.90;27.70;;;;;;;;;;5114870;28;20665;-78
2021/01/23 13:39:24;;;;;;;30.25;28.15;;;;;;;;;;5115750;28;20192;-78
2021/01/23 13:41:51;;;;;;;28.35;26.30;;;;;;;;;;5115225;28;20321;-78
2021/01/23 13:44:17;;;;;;;26.45;24.55;;;;;;;;;;5115205;28;20196;-79
2021/01/23 13:46:44;;;;;;;26.80;25.00;;;;;;;;;;5114619;28;20240;-78
2021/01/23 13:49:12;;;;;;;29.75;27.67;;;;;;;;;;5114875;28;20209;-78
2021/01/23 13:51:39;;;;;;;29.00;26.85;;;;;;;;;;5115042;28;20198;-78
2021/01/23 13:54:06;;;;;;;41.53;38.45;;;;;;;;;;5114178;28;20200;-78
2021/01/23 13:56:34;;;;;;;29.95;27.85;;;;;;;;;;5114501;28;20703;-78
2021/01/23 13:59:01;;;;;;;26.40;24.52;;;;;;;;;;5114873;28;20191;-78
2021/01/23 14:01:28;;;;;;;26.10;24.10;;;;;;;;;;5114724;28;20201;-78
2021/01/23 14:03:55;;;;;;;24.05;22.55;;;;;;;;;;5114794;28;20187;-78
2021/01/23 14:06:23;;;;;;;25.67;23.83;;;;;;;;;;5114440;28;20616;-78
2021/01/23 14:08:50;;;;;;;26.30;24.50;;;;;;;;;;5114480;28;20549;-78
2021/01/23 14:11:16;;;;;;;25.45;23.73;;;;;;;;;;5114705;28;20199;-78
2021/01/23 14:13:43;;;;;;;31.05;28.85;;;;;;;;;;5114518;28;20187;-80
2021/01/23 14:16:10;;;;;;;25.85;23.70;;;;;;;;;;5114744;28;20188;-80
2021/01/23 14:18:37;;;;;;;24.42;22.77;;;;;;;;;;5113452;28;20526;-81
2021/01/23 14:21:04;;;;;;;26.92;25.02;;;;;;;;;;5115127;28;20191;-77
2021/01/23 14:23:32;;;;;;;25.83;24.08;;;;;;;;;;5114184;28;20184;-77
2021/01/23 14:26:00;;;;;;;26.00;24.20;;;;;;;;;;5114015;28;20557;-77